sensor_id;sensor_type;location;lat;lon;timestamp;pressure;altitude;pressure_sealevel;temperature;humidity
57894;BME280;43710;47.460;19.034;2023-05-10T04:04:38;100716.38;;;14.18;65.82
57894;BME280;43710;47.460;19.034;2023-05-10T04:07:41;100716.38;;;14.18;65.82
57894;BME280;43710;47.460;19.034;2023-05-10T04:10:43;100717.63;;;13.74;74.60
57894;BME280;43710;47.460;19.034;2023-05-10T04:13:46;100714.03;;;13.79;68.90
57894;BME280;43710;47.460;19.034;2023-05-10T04:16:48;100709.25;;;13.76;68.02
57894;BME280;43710;47.460;19.034;2023-05-10T04:19:51;100706.53;;;13.76;71.08
57894;BME280;43710;47.460;19.034;2023-05-10T04:22:56;100702.31;;;13.89;67.86
57894;BME280;43710;47.460;19.034;2023-05-10T04:26:00;100707.31;;;13.95;65.92
57894;BME280;43710;47.460;19.034;2023-05-10T04:29:02;100713.94;;;13.84;65.40
57894;BME280;43710;47.460;19.034;2023-05-10T04:32:04;100713.03;;;13.75;66.71
57894;BME280;43710;47.460;19.034;2023-05-10T04:35:07;100715.78;;;13.89;67.76
57894;BME280;43710;47.460;19.034;2023-05-10T04:38:09;100717.31;;;13.95;67.89
57894;BME280;43710;47.460;19.034;2023-05-10T04:41:11;100714.50;;;14.00;63.89
57894;BME280;43710;47.460;19.034;2023-05-10T04:44:14;100709.31;;;14.03;64.34
57894;BME280;43710;47.460;19.034;2023-05-10T04:47:16;100719.63;;;14.01;63.83
57894;BME280;43710;47.460;19.034;2023-05-10T04:50:18;100713.56;;;13.91;76.56
57894;BME280;43710;47.460;19.034;2023-05-10T04:53:21;100717.94;;;14.05;68.57
57894;BME280;43710;47.460;19.034;2023-05-10T04:56:23;100713.72;;;13.99;64.35
57894;BME280;43710;47.460;19.034;2023-05-10T04:59:25;100712.84;;;14.04;64.92
57894;BME280;43710;47.460;19.034;2023-05-10T05:02:28;100711.16;;;14.08;63.86
57894;BME280;43710;47.460;19.034;2023-05-10T05:05:30;100713.09;;;14.21;67.33
57894;BME280;43710;47.460;19.034;2023-05-10T05:08:33;100713.72;;;14.46;72.96
57894;BME280;43710;47.460;19.034;2023-05-10T05:11:35;100719.09;;;14.32;64.47
57894;BME280;43710;47.460;19.034;2023-05-10T05:14:38;100711.37;;;14.72;67.39
57894;BME280;43710;47.460;19.034;2023-05-10T05:17:40;100724.56;;;14.73;68.07
57894;BME280;43710;47.460;19.034;2023-05-10T05:20:42;100722.75;;;14.96;66.27
57894;BME280;43710;47.460;19.034;2023-05-10T05:23:45;100717.69;;;14.95;67.13
57894;BME280;43710;47.460;19.034;2023-05-10T05:26:48;100729.28;;;14.95;63.43
57894;BME280;43710;47.460;19.034;2023-05-10T05:29:52;100727.69;;;14.94;65.30
57894;BME280;43710;47.460;19.034;2023-05-10T05:32:54;100734.47;;;15.06;64.99
57894;BME280;43710;47.460;19.034;2023-05-10T05:35:57;100733.16;;;15.17;62.37
57894;BME280;43710;47.460;19.034;2023-05-10T05:39:01;100729.66;;;15.30;61.72
57894;BME280;43710;47.460;19.034;2023-05-10T05:42:04;100739.13;;;15.41;70.52
57894;BME280;43710;47.460;19.034;2023-05-10T05:45:10;100739.22;;;15.50;63.82
57894;BME280;43710;47.460;19.034;2023-05-10T05:48:16;100745.94;;;15.75;60.87
57894;BME280;43710;47.460;19.034;2023-05-10T05:51:21;100737.75;;;15.80;59.98
57894;BME280;43710;47.460;19.034;2023-05-10T05:54:25;100741.53;;;15.79;60.40
57894;BME280;43710;47.460;19.034;2023-05-10T05:57:27;100744.91;;;15.85;58.20
57894;BME280;43710;47.460;19.034;2023-05-10T06:00:29;100747.69;;;15.93;61.74
57894;BME280;43710;47.460;19.034;2023-05-10T06:03:32;100744.59;;;16.09;58.20
57894;BME280;43710;47.460;19.034;2023-05-10T06:06:38;100752.00;;;16.17;58.13
57894;BME280;43710;47.460;19.034;2023-05-10T06:09:40;100745.34;;;16.01;59.46
57894;BME280;43710;47.460;19.034;2023-05-10T06:12:43;100748.84;;;16.24;61.32
57894;BME280;43710;47.460;19.034;2023-05-10T06:15:45;100756.53;;;16.30;66.39
57894;BME280;43710;47.460;19.034;2023-05-10T06:18:48;100754.34;;;16.41;58.18
57894;BME280;43710;47.460;19.034;2023-05-10T06:21:51;100757.75;;;16.47;64.04
57894;BME280;43710;47.460;19.034;2023-05-10T06:24:55;100761.94;;;16.61;62.08
57894;BME280;43710;47.460;19.034;2023-05-10T06:27:57;100762.72;;;16.84;63.44
57894;BME280;43710;47.460;19.034;2023-05-10T06:31:00;100757.47;;;16.88;56.01
57894;BME280;43710;47.460;19.034;2023-05-10T06:34:04;100762.94;;;16.97;60.31
57894;BME280;43710;47.460;19.034;2023-05-10T06:37:06;100762.75;;;17.02;59.06
57894;BME280;43710;47.460;19.034;2023-05-10T06:40:09;100768.19;;;17.02;55.00
57894;BME280;43710;47.460;19.034;2023-05-10T06:43:11;100758.31;;;16.97;55.24
57894;BME280;43710;47.460;19.034;2023-05-10T06:46:14;100758.31;;;16.97;55.90
57894;BME280;43710;47.460;19.034;2023-05-10T06:49:16;100754.22;;;17.17;58.54
57894;BME280;43710;47.460;19.034;2023-05-10T06:52:19;100751.69;;;17.29;57.85
57894;BME280;43710;47.460;19.034;2023-05-10T06:55:22;100756.31;;;17.37;57.80
57894;BME280;43710;47.460;19.034;2023-05-10T06:58:27;100752.31;;;17.35;57.45
57894;BME280;43710;47.460;19.034;2023-05-10T07:01:29;100748.06;;;17.43;56.54
57894;BME280;43710;47.460;19.034;2023-05-10T07:04:32;100744.03;;;17.31;56.77
57894;BME280;43710;47.460;19.034;2023-05-10T07:07:35;100744.03;;;17.31;56.06
57894;BME280;43710;47.460;19.034;2023-05-10T07:10:38;100749.31;;;17.36;60.30
57894;BME280;43710;47.460;19.034;2023-05-10T07:13:40;100738.16;;;17.38;54.94
57894;BME280;43710;47.460;19.034;2023-05-10T07:16:46;100745.03;;;17.35;58.05
57894;BME280;43710;47.460;19.034;2023-05-10T07:19:49;100741.34;;;17.40;56.36
57894;BME280;43710;47.460;19.034;2023-05-10T07:22:51;100743.09;;;17.36;56.38
57894;BME280;43710;47.460;19.034;2023-05-10T07:25:53;100744.03;;;17.31;58.95
57894;BME280;43710;47.460;19.034;2023-05-10T07:28:56;100741.69;;;17.38;57.78
57894;BME280;43710;47.460;19.034;2023-05-10T07:31:58;100740.22;;;17.32;56.11
57894;BME280;43710;47.460;19.034;2023-05-10T07:35:00;100734.97;;;17.36;56.14
57894;BME280;43710;47.460;19.034;2023-05-10T07:38:03;100730.31;;;17.28;54.82
57894;BME280;43710;47.460;19.034;2023-05-10T07:41:05;100730.53;;;17.49;54.83
57894;BME280;43710;47.460;19.034;2023-05-10T07:44:08;100732.59;;;17.52;59.64
57894;BME280;43710;47.460;19.034;2023-05-10T07:47:10;100734.03;;;17.58;58.97
57894;BME280;43710;47.460;19.034;2023-05-10T07:50:12;100727.00;;;17.57;63.01
57894;BME280;43710;47.460;19.034;2023-05-10T07:53:15;100732.75;;;17.64;58.03
57894;BME280;43710;47.460;19.034;2023-05-10T07:56:29;100731.63;;;17.48;53.09
57894;BME280;43710;47.460;19.034;2023-05-10T07:59:32;100746.13;;;17.34;55.28
57894;BME280;43710;47.460;19.034;2023-05-10T08:02:35;100740.06;;;17.29;56.42
57894;BME280;43710;47.460;19.034;2023-05-10T08:05:37;100739.72;;;17.22;55.08
57894;BME280;43710;47.460;19.034;2023-05-10T08:08:40;100741.59;;;17.04;56.39
57894;BME280;43710;47.460;19.034;2023-05-10T08:11:42;100732.06;;;17.24;57.97
57894;BME280;43710;47.460;19.034;2023-05-10T08:14:44;100728.91;;;17.39;55.79
57894;BME280;43710;47.460;19.034;2023-05-10T08:17:47;100732.28;;;17.71;56.34
57894;BME280;43710;47.460;19.034;2023-05-10T08:20:51;100727.03;;;17.66;51.86
57894;BME280;43710;47.460;19.034;2023-05-10T08:23:53;100739.78;;;17.56;55.68
57894;BME280;43710;47.460;19.034;2023-05-10T08:27:05;100732.91;;;17.50;57.47
57894;BME280;43710;47.460;19.034;2023-05-10T08:30:08;100732.59;;;17.52;56.02
57894;BME280;43710;47.460;19.034;2023-05-10T08:33:11;100723.69;;;17.69;55.41
57894;BME280;43710;47.460;19.034;2023-05-10T08:36:14;100726.09;;;17.79;55.35
57894;BME280;43710;47.460;19.034;2023-05-10T08:39:22;100734.84;;;18.02;57.93
57894;BME280;43710;47.460;19.034;2023-05-10T08:42:34;100726.53;;;18.07;53.36
57894;BME280;43710;47.460;19.034;2023-05-10T08:45:42;100717.59;;;17.98;53.36
57894;BME280;43710;47.460;19.034;2023-05-10T08:48:46;100722.72;;;17.73;61.36
57894;BME280;43710;47.460;19.034;2023-05-10T08:51:54;100716.19;;;17.66;54.21
57894;BME280;43710;47.460;19.034;2023-05-10T08:54:59;100721.47;;;17.79;56.75
57894;BME280;43710;47.460;19.034;2023-05-10T08:58:02;100714.75;;;17.68;52.55
57894;BME280;43710;47.460;19.034;2023-05-10T09:01:06;100720.78;;;17.56;55.12
57894;BME280;43710;47.460;19.034;2023-05-10T09:04:09;100724.94;;;17.71;55.07
57894;BME280;43710;47.460;19.034;2023-05-10T09:07:13;100712.34;;;17.93;53.11
57894;BME280;43710;47.460;19.034;2023-05-10T09:10:15;100726.06;;;17.88;52.98
57894;BME280;43710;47.460;19.034;2023-05-10T09:13:18;100717.78;;;18.01;52.96
57894;BME280;43710;47.460;19.034;2023-05-10T09:16:22;100717.94;;;18.05;60.55
57894;BME280;43710;47.460;19.034;2023-05-10T09:19:24;100718.87;;;18.00;53.36
57894;BME280;43710;47.460;19.034;2023-05-10T09:22:27;100718.87;;;18.00;52.16
57894;BME280;43710;47.460;19.034;2023-05-10T09:25:29;100716.47;;;18.07;53.08
57894;BME280;43710;47.460;19.034;2023-05-10T09:28:50;100714.09;;;18.06;51.21
57894;BME280;43710;47.460;19.034;2023-05-10T09:31:53;100709.66;;;17.93;56.00
57894;BME280;43710;47.460;19.034;2023-05-10T09:35:06;100709.75;;;18.14;54.39
57894;BME280;43710;47.460;19.034;2023-05-10T09:38:08;100705.91;;;18.23;51.67
57894;BME280;43710;47.460;19.034;2023-05-10T09:41:22;100706.16;;;18.48;54.34
57894;BME280;43710;47.460;19.034;2023-05-10T09:44:25;100701.94;;;18.59;50.51
57894;BME280;43710;47.460;19.034;2023-05-10T09:47:27;100701.47;;;18.57;50.52
57894;BME280;43710;47.460;19.034;2023-05-10T09:50:30;100701.81;;;18.55;50.10
57894;BME280;43710;47.460;19.034;2023-05-10T09:53:33;100703.22;;;18.62;51.11
57894;BME280;43710;47.460;19.034;2023-05-10T09:56:36;100695.72;;;18.59;50.83
57894;BME280;43710;47.460;19.034;2023-05-10T09:59:42;100702.63;;;18.47;49.07
57894;BME280;43710;47.460;19.034;2023-05-10T10:02:47;100696.31;;;18.35;49.21
57894;BME280;43710;47.460;19.034;2023-05-10T10:05:50;100694.37;;;18.35;51.27
57894;BME280;43710;47.460;19.034;2023-05-10T10:08:53;100688.63;;;18.37;51.71
57894;BME280;43710;47.460;19.034;2023-05-10T10:11:59;100680.87;;;18.56;53.53
57894;BME280;43710;47.460;19.034;2023-05-10T10:15:01;100683.22;;;18.66;48.88
57894;BME280;43710;47.460;19.034;2023-05-10T10:18:07;100682.97;;;18.89;51.98
57894;BME280;43710;47.460;19.034;2023-05-10T10:21:15;100676.25;;;18.95;50.91
57894;BME280;43710;47.460;19.034;2023-05-10T10:24:19;100671.37;;;19.00;49.73
57894;BME280;43710;47.460;19.034;2023-05-10T10:27:26;100671.47;;;19.13;51.14
57894;BME280;43710;47.460;19.034;2023-05-10T10:30:42;100672.09;;;19.18;50.39
57894;BME280;43710;47.460;19.034;2023-05-10T10:34:08;100663.00;;;19.14;49.13
57894;BME280;43710;47.460;19.034;2023-05-10T10:37:11;100657.22;;;18.95;48.85
57894;BME280;43710;47.460;19.034;2023-05-10T10:40:24;100658.53;;;18.89;47.15
57894;BME280;43710;47.460;19.034;2023-05-10T10:43:28;100663.06;;;18.76;45.68
57894;BME280;43710;47.460;19.034;2023-05-10T10:46:34;100662.28;;;18.75;48.07
57894;BME280;43710;47.460;19.034;2023-05-10T10:52:46;100655.69;;;19.06;50.28
57894;BME280;43710;47.460;19.034;2023-05-10T10:56:04;100652.06;;;19.02;53.84
57894;BME280;43710;47.460;19.034;2023-05-10T10:59:08;100653.50;;;18.99;51.75
57894;BME280;43710;47.460;19.034;2023-05-10T11:02:34;100641.41;;;19.18;46.37
57894;BME280;43710;47.460;19.034;2023-05-10T11:08:42;100625.34;;;19.25;47.56
57894;BME280;43710;47.460;19.034;2023-05-10T11:11:50;100644.97;;;19.31;50.59
57894;BME280;43710;47.460;19.034;2023-05-10T11:14:57;100634.97;;;19.22;45.02
57894;BME280;43710;47.460;19.034;2023-05-10T11:18:02;100625.28;;;19.13;48.00
57894;BME280;43710;47.460;19.034;2023-05-10T11:21:18;100621.06;;;19.24;49.04
57894;BME280;43710;47.460;19.034;2023-05-10T11:24:22;100614.53;;;19.16;46.74
57894;BME280;43710;47.460;19.034;2023-05-10T11:27:25;100622.88;;;19.32;48.25
57894;BME280;43710;47.460;19.034;2023-05-10T11:30:28;100608.56;;;19.44;45.72
57894;BME280;43710;47.460;19.034;2023-05-10T11:33:42;100608.59;;;19.56;46.72
57894;BME280;43710;47.460;19.034;2023-05-10T11:36:51;100616.19;;;19.63;45.19
57894;BME280;43710;47.460;19.034;2023-05-10T11:39:54;100604.41;;;19.59;44.56
57894;BME280;43710;47.460;19.034;2023-05-10T11:42:57;100602.72;;;19.54;42.57
57894;BME280;43710;47.460;19.034;2023-05-10T11:45:59;100606.16;;;19.42;44.26
57894;BME280;43710;47.460;19.034;2023-05-10T11:49:02;100605.88;;;19.56;46.62
57894;BME280;43710;47.460;19.034;2023-05-10T11:52:08;100605.84;;;19.44;44.03
57894;BME280;43710;47.460;19.034;2023-05-10T11:55:10;100601.75;;;19.50;51.52
57894;BME280;43710;47.460;19.034;2023-05-10T11:58:13;100595.50;;;19.37;48.32
57894;BME280;43710;47.460;19.034;2023-05-10T12:01:15;100607.91;;;19.59;44.81
57894;BME280;43710;47.460;19.034;2023-05-10T12:04:18;100598.66;;;19.60;42.75
57894;BME280;43710;47.460;19.034;2023-05-10T12:07:21;100602.87;;;19.70;43.77
57894;BME280;43710;47.460;19.034;2023-05-10T12:10:26;100599.41;;;19.82;45.20
57894;BME280;43710;47.460;19.034;2023-05-10T12:13:29;100601.91;;;19.87;43.74
57894;BME280;43710;47.460;19.034;2023-05-10T12:16:32;100609.25;;;19.86;43.15
57894;BME280;43710;47.460;19.034;2023-05-10T12:19:38;100609.91;;;19.71;47.64
57894;BME280;43710;47.460;19.034;2023-05-10T12:22:51;100601.38;;;19.60;46.01
57894;BME280;43710;47.460;19.034;2023-05-10T12:25:53;100602.44;;;19.68;44.60
57894;BME280;43710;47.460;19.034;2023-05-10T12:29:14;100597.44;;;19.70;45.33
57894;BME280;43710;47.460;19.034;2023-05-10T12:32:17;100595.25;;;19.63;42.50
57894;BME280;43710;47.460;19.034;2023-05-10T12:35:20;100585.69;;;19.45;41.80
57894;BME280;43710;47.460;19.034;2023-05-10T12:38:33;100585.81;;;19.48;45.98
57894;BME280;43710;47.460;19.034;2023-05-10T12:41:36;100584.91;;;19.57;43.30
57894;BME280;43710;47.460;19.034;2023-05-10T12:44:41;100582.41;;;19.52;44.08
57894;BME280;43710;47.460;19.034;2023-05-10T12:47:43;100587.56;;;19.65;47.00
57894;BME280;43710;47.460;19.034;2023-05-10T12:50:46;100580.69;;;19.68;47.86
57894;BME280;43710;47.460;19.034;2023-05-10T12:53:48;100570.22;;;19.70;43.05
57894;BME280;43710;47.460;19.034;2023-05-10T12:56:50;100570.78;;;19.63;44.04
57894;BME280;43710;47.460;19.034;2023-05-10T12:59:53;100561.16;;;19.66;45.24
57894;BME280;43710;47.460;19.034;2023-05-10T13:02:55;100560.62;;;19.73;44.27
57894;BME280;43710;47.460;19.034;2023-05-10T13:05:58;100559.25;;;19.66;43.46
57894;BME280;43710;47.460;19.034;2023-05-10T13:09:00;100553.78;;;19.66;43.70
57894;BME280;43710;47.460;19.034;2023-05-10T13:12:03;100548.16;;;19.71;41.22
57894;BME280;43710;47.460;19.034;2023-05-10T13:15:05;100539.88;;;19.68;44.22
57894;BME280;43710;47.460;19.034;2023-05-10T13:18:08;100548.19;;;19.84;43.82
57894;BME280;43710;47.460;19.034;2023-05-10T13:21:11;100545.91;;;19.86;42.60
57894;BME280;43710;47.460;19.034;2023-05-10T13:24:13;100536.06;;;19.93;41.01
57894;BME280;43710;47.460;19.034;2023-05-10T13:27:16;100528.81;;;19.98;42.53
57894;BME280;43710;47.460;19.034;2023-05-10T13:30:18;100529.38;;;19.91;41.56
57894;BME280;43710;47.460;19.034;2023-05-10T13:33:20;100528.13;;;19.88;43.80
57894;BME280;43710;47.460;19.034;2023-05-10T13:36:23;100526.75;;;19.82;45.07
57894;BME280;43710;47.460;19.034;2023-05-10T13:39:25;100524.38;;;19.81;42.21
57894;BME280;43710;47.460;19.034;2023-05-10T13:42:27;100519.13;;;19.76;42.64
57894;BME280;43710;47.460;19.034;2023-05-10T13:45:30;100519.94;;;19.76;41.06
57894;BME280;43710;47.460;19.034;2023-05-10T13:48:32;100520.72;;;19.77;42.10
57894;BME280;43710;47.460;19.034;2023-05-10T13:51:35;100513.81;;;19.79;43.38
57894;BME280;43710;47.460;19.034;2023-05-10T13:54:37;100513.03;;;19.79;44.27
57894;BME280;43710;47.460;19.034;2023-05-10T13:57:40;100508.25;;;19.76;45.74
57894;BME280;43710;47.460;19.034;2023-05-10T14:00:42;100506.91;;;19.82;48.29
57894;BME280;43710;47.460;19.034;2023-05-10T14:03:45;100505.53;;;19.76;44.53
57894;BME280;43710;47.460;19.034;2023-05-10T14:06:47;100501.69;;;19.77;43.17
57894;BME280;43710;47.460;19.034;2023-05-10T14:09:50;100497.25;;;19.72;40.41
57894;BME280;43710;47.460;19.034;2023-05-10T14:12:52;100490.00;;;19.76;44.71
57894;BME280;43710;47.460;19.034;2023-05-10T14:15:54;100483.00;;;19.87;41.20
57894;BME280;43710;47.460;19.034;2023-05-10T14:18:57;100486.28;;;19.93;38.41
57894;BME280;43710;47.460;19.034;2023-05-10T14:22:00;100484.81;;;19.95;36.97
57894;BME280;43710;47.460;19.034;2023-05-10T14:25:02;100476.75;;;19.99;41.17
57894;BME280;43710;47.460;19.034;2023-05-10T14:28:05;100477.53;;;20.00;38.66
57894;BME280;43710;47.460;19.034;2023-05-10T14:31:07;100475.38;;;19.93;39.21
57894;BME280;43710;47.460;19.034;2023-05-10T14:34:09;100477.31;;;19.92;41.62
57894;BME280;43710;47.460;19.034;2023-05-10T14:37:13;100479.47;;;19.99;37.87
57894;BME280;43710;47.460;19.034;2023-05-10T14:40:16;100474.94;;;20.03;40.52
57894;BME280;43710;47.460;19.034;2023-05-10T14:43:18;100472.56;;;20.14;39.66
57894;BME280;43710;47.460;19.034;2023-05-10T14:46:21;100468.78;;;20.18;38.43
57894;BME280;43710;47.460;19.034;2023-05-10T14:49:23;100474.44;;;20.26;42.58
57894;BME280;43710;47.460;19.034;2023-05-10T14:52:27;100466.53;;;20.21;37.55
57894;BME280;43710;47.460;19.034;2023-05-10T14:55:29;100467.44;;;20.25;39.13
57894;BME280;43710;47.460;19.034;2023-05-10T14:58:32;100456.41;;;20.33;38.17
57894;BME280;43710;47.460;19.034;2023-05-10T15:01:35;100458.00;;;20.34;39.66
57894;BME280;43710;47.460;19.034;2023-05-10T15:04:40;100462.84;;;20.41;39.34
57894;BME280;43710;47.460;19.034;2023-05-10T15:07:42;100468.53;;;20.36;38.64
57894;BME280;43710;47.460;19.034;2023-05-10T15:10:46;100461.88;;;20.21;40.71
57894;BME280;43710;47.460;19.034;2023-05-10T15:13:48;100476.63;;;20.08;40.60
57894;BME280;43710;47.460;19.034;2023-05-10T15:16:50;100468.25;;;20.01;39.54
57894;BME280;43710;47.460;19.034;2023-05-10T15:19:53;100474.81;;;20.00;38.80
57894;BME280;43710;47.460;19.034;2023-05-10T15:22:55;100473.50;;;19.93;39.94
